CheckWX is a tool to help pilots better visualize weather data.  It is not intended as a substitute for an official pre-flight weather briefing.

03:28:38 UTC

KPRC METAR
Ernest A Love Field Airport
Prescott, Arizona, USA
Current

36 mins ago

KPRC 060253Z 21005KT 10SM CLR 06/03 A3023 RMK AO2 SLP213 T00610033 53017
Observed
Dec-6 @ 02:53 UTC
Wind
  • 210° at 5 KTS
Visibility
10 SM
Flight Rules
VFR
Cloud Levels
  • Clear skies
Temperature
C / 43°F
Dewpoint
C / 37°F
Humidity
81%
Altimeter
30.23" Hg
Pressure
1023.72 hPa
Previous

2 hours ago

KPRC 060153Z 23004KT 10SM CLR 07/04 A3020 RMK AO2 SLP200 T00720039
Observed
Dec-6 @ 01:53 UTC
Wind
  • 230° at 4 KTS
Visibility
10 SM
Flight Rules
VFR
Cloud Levels
  • Clear skies
Temperature
C / 45°F
Dewpoint
C / 39°F
Humidity
81%
Altimeter
30.2" Hg
Pressure
1022.72 hPa
Previous

3 hours ago

KPRC 060053Z 06003KT 10SM CLR 09/04 A3019 RMK AO2 SLP190 T00940039
Observed
Dec-6 @ 00:53 UTC
Wind
  • 060° at 3 KTS
Visibility
10 SM
Flight Rules
VFR
Cloud Levels
  • Clear skies
Temperature
C / 48°F
Dewpoint
C / 39°F
Humidity
71%
Altimeter
30.19" Hg
Pressure
1022.32 hPa